createdAt,value
2019-05-11T00:01:34.022Z,7.23
2019-05-11T00:04:02.440Z,7.40
2019-05-11T00:06:30.949Z,7.63
2019-05-11T00:08:59.459Z,7.50
2019-05-11T00:11:28.057Z,8.53
2019-05-11T00:13:56.483Z,8.77
2019-05-11T00:16:25.074Z,8.77
2019-05-11T00:18:53.420Z,8.30
2019-05-11T00:21:22.140Z,9.03
2019-05-11T00:23:50.548Z,8.80
2019-05-11T00:26:19.030Z,8.33
2019-05-11T00:28:47.511Z,8.47
2019-05-11T00:31:16.038Z,8.47
2019-05-11T00:33:44.463Z,8.37
2019-05-11T00:36:12.907Z,9.40
2019-05-11T00:38:41.358Z,8.87
2019-05-11T00:41:09.889Z,8.83
2019-05-11T00:43:38.296Z,8.37
2019-05-11T00:46:06.727Z,7.87
2019-05-11T00:48:35.270Z,8.23
2019-05-11T00:51:03.677Z,8.10
2019-05-11T00:53:32.550Z,8.90
2019-05-11T00:56:01.095Z,8.53
2019-05-11T00:58:29.537Z,7.33
2019-05-11T01:00:57.946Z,7.73
2019-05-11T01:03:26.440Z,7.60
2019-05-11T01:05:54.896Z,7.53
2019-05-11T01:08:23.313Z,6.60
2019-05-11T01:10:51.706Z,5.70
2019-05-11T01:13:20.245Z,5.87
2019-05-11T01:15:48.783Z,6.17
2019-05-11T01:18:17.164Z,6.60
2019-05-11T01:20:45.775Z,6.10
2019-05-11T01:23:14.204Z,6.20
2019-05-11T01:25:42.632Z,6.37
2019-05-11T01:28:11.138Z,6.87
2019-05-11T01:30:39.569Z,6.40
2019-05-11T01:33:08.111Z,7.10
2019-05-11T01:35:36.641Z,6.27
2019-05-11T01:38:05.092Z,5.70
2019-05-11T01:40:33.525Z,5.80
2019-05-11T01:43:01.936Z,5.77
2019-05-11T01:45:30.354Z,5.50
2019-05-11T01:47:58.866Z,6.47
2019-05-11T01:50:27.356Z,6.70
2019-05-11T01:52:55.769Z,6.23
2019-05-11T01:55:24.447Z,6.67
2019-05-11T01:57:52.857Z,6.07
2019-05-11T02:00:21.503Z,6.33
2019-05-11T02:02:49.937Z,5.97
2019-05-11T02:05:30.793Z,6.30
2019-05-11T02:08:01.275Z,6.83
2019-05-11T02:10:31.473Z,6.43
2019-05-11T02:13:00.006Z,6.00
2019-05-11T02:15:28.498Z,7.20
2019-05-11T02:17:56.966Z,6.47
2019-05-11T02:20:25.509Z,6.30
2019-05-11T02:22:53.965Z,6.90
2019-05-11T02:25:22.469Z,7.97
2019-05-11T02:27:50.898Z,7.07
2019-05-11T02:30:19.766Z,6.17
2019-05-11T02:32:48.249Z,6.13
2019-05-11T02:35:16.714Z,6.40
2019-05-11T02:37:45.231Z,6.40
2019-05-11T02:40:14.249Z,6.10
2019-05-11T02:42:42.703Z,6.10
2019-05-11T02:45:11.751Z,5.10
2019-05-11T02:47:40.377Z,6.40
2019-05-11T02:50:08.915Z,6.30
2019-05-11T02:52:38.357Z,6.60
2019-05-11T02:55:07.133Z,8.20
2019-05-11T02:57:37.518Z,8.57
2019-05-11T03:00:09.245Z,9.50
2019-05-11T03:02:37.680Z,9.10
2019-05-11T03:05:08.001Z,8.30
2019-05-11T03:07:36.434Z,8.27
2019-05-11T03:10:05.847Z,9.83
2019-05-11T03:12:34.241Z,9.27
2019-05-11T03:15:02.682Z,8.20
2019-05-11T03:17:32.765Z,8.87
2019-05-11T03:20:01.136Z,9.57
2019-05-11T03:22:29.634Z,8.00
2019-05-11T03:24:58.114Z,8.73
2019-05-11T03:27:26.615Z,7.97
2019-05-11T03:29:59.936Z,8.27
2019-05-11T03:32:25.298Z,7.30
2019-05-11T03:34:53.799Z,8.37
2019-05-11T03:37:22.239Z,7.83
2019-05-11T03:39:50.746Z,8.27
2019-05-11T03:42:19.191Z,6.80
2019-05-11T03:44:47.750Z,7.87
2019-05-11T03:47:16.201Z,7.60
2019-05-11T03:49:44.793Z,7.73
2019-05-11T03:52:13.210Z,8.33
2019-05-11T03:54:41.656Z,8.03
2019-05-11T03:57:10.053Z,8.87
2019-05-11T03:59:38.479Z,8.07
2019-05-11T04:02:06.999Z,8.00
2019-05-11T04:04:35.508Z,7.43
2019-05-11T04:07:04.026Z,7.10
2019-05-11T04:09:32.452Z,7.13
2019-05-11T04:12:00.883Z,6.43
2019-05-11T04:14:29.297Z,6.50
2019-05-11T04:16:57.732Z,6.00
2019-05-11T04:19:26.140Z,6.40
2019-05-11T04:21:54.523Z,5.70
2019-05-11T04:24:22.938Z,6.57
2019-05-11T04:26:51.374Z,5.83
2019-05-11T04:29:19.860Z,5.87
2019-05-11T04:31:48.362Z,6.33
2019-05-11T04:34:16.805Z,6.10
2019-05-11T04:36:45.235Z,5.30
2019-05-11T04:39:13.724Z,5.60
2019-05-11T04:41:42.164Z,6.53
2019-05-11T04:44:10.561Z,5.87
2019-05-11T04:46:39.038Z,6.47
2019-05-11T04:49:07.427Z,6.50
2019-05-11T04:51:35.841Z,6.03
2019-05-11T04:54:04.429Z,6.20
2019-05-11T04:56:33.098Z,6.80
2019-05-11T04:59:01.516Z,6.43
2019-05-11T05:01:29.999Z,6.60
2019-05-11T05:04:13.580Z,5.93
2019-05-11T05:06:28.533Z,6.23
2019-05-11T05:08:58.119Z,5.70
2019-05-11T05:11:30.612Z,5.87
2019-05-11T05:14:01.883Z,5.90
2019-05-11T05:16:31.196Z,6.70
2019-05-11T05:18:57.745Z,6.60
2019-05-11T05:21:26.181Z,7.57
2019-05-11T05:23:54.589Z,7.50
2019-05-11T05:26:23.079Z,7.20
2019-05-11T05:28:51.533Z,7.57
2019-05-11T05:31:19.943Z,8.63
2019-05-11T05:33:48.347Z,8.37
2019-05-11T05:36:16.776Z,8.03
2019-05-11T05:38:45.186Z,8.47
2019-05-11T05:41:13.617Z,8.33
2019-05-11T05:43:42.015Z,9.03
2019-05-11T05:46:10.545Z,10.53
2019-05-11T05:48:38.956Z,11.20
2019-05-11T05:51:07.397Z,9.87
2019-05-11T05:53:35.845Z,9.47
2019-05-11T05:56:04.288Z,9.60
2019-05-11T05:58:32.804Z,10.23
2019-05-11T06:01:01.181Z,9.60
2019-05-11T06:03:29.630Z,11.13
2019-05-11T06:05:58.067Z,12.10
2019-05-11T06:08:26.490Z,11.30
2019-05-11T06:10:55.009Z,11.97
2019-05-11T06:13:23.453Z,12.77
2019-05-11T06:15:51.998Z,11.13
2019-05-11T06:18:20.518Z,11.93
2019-05-11T06:20:48.976Z,13.37
2019-05-11T06:23:17.415Z,14.57
2019-05-11T06:25:45.855Z,12.60
2019-05-11T06:28:14.308Z,13.07
2019-05-11T06:30:42.721Z,11.93
2019-05-11T06:33:11.236Z,12.67
2019-05-11T06:35:39.642Z,12.33
2019-05-11T06:38:08.188Z,12.33
2019-05-11T06:40:36.620Z,13.33
2019-05-11T06:43:05.210Z,13.70
2019-05-11T06:45:33.661Z,16.60
2019-05-11T06:48:02.094Z,15.33
2019-05-11T06:50:30.522Z,15.37
2019-05-11T06:52:58.937Z,15.17
2019-05-11T06:55:27.455Z,13.63
2019-05-11T06:57:55.885Z,14.67
2019-05-11T07:00:24.587Z,15.47
2019-05-11T07:02:53.000Z,16.47
2019-05-11T07:05:21.454Z,17.27
2019-05-11T07:07:49.896Z,16.03
2019-05-11T07:10:18.481Z,13.77
2019-05-11T07:12:46.943Z,14.93
2019-05-11T07:15:15.550Z,14.23
2019-05-11T07:17:43.921Z,13.77
2019-05-11T07:20:12.712Z,13.07
2019-05-11T07:22:41.160Z,14.33
2019-05-11T07:25:09.815Z,13.57
2019-05-11T07:27:38.351Z,13.07
2019-05-11T07:30:07.296Z,11.43
2019-05-11T07:32:38.201Z,11.73
2019-05-11T07:35:08.431Z,11.10
2019-05-11T07:37:38.560Z,11.77
2019-05-11T07:40:08.266Z,3.57
2019-05-11T07:42:38.032Z,2.40
2019-05-11T07:45:09.063Z,5.10
2019-05-11T07:47:38.132Z,5.20
2019-05-11T07:50:08.455Z,4.77
2019-05-11T07:52:37.866Z,4.40
2019-05-11T07:55:08.586Z,3.17
2019-05-11T07:57:39.052Z,1.93
2019-05-11T08:00:08.107Z,1.17
2019-05-11T08:02:38.728Z,0.93
2019-05-11T08:05:08.661Z,0.70
2019-05-11T08:07:37.911Z,1.00
2019-05-11T08:10:08.185Z,0.80
2019-05-11T08:12:39.195Z,0.80
2019-05-11T08:15:12.992Z,0.87
2019-05-11T08:17:38.431Z,0.87
2019-05-11T08:20:08.407Z,0.90
2019-05-11T08:22:37.703Z,0.83
2019-05-11T08:25:09.252Z,1.13
2019-05-11T08:27:38.006Z,1.00
2019-05-11T08:30:09.981Z,1.00
2019-05-11T08:32:38.754Z,1.07
2019-05-11T08:35:09.038Z,0.90
2019-05-11T08:37:38.750Z,0.80
2019-05-11T08:40:08.087Z,0.90
2019-05-11T08:42:37.822Z,0.80
2019-05-11T08:45:19.518Z,1.70
2019-05-11T08:47:37.712Z,1.13
2019-05-11T08:50:08.159Z,1.60
2019-05-11T08:52:38.626Z,1.20
2019-05-11T08:55:08.404Z,1.00
2019-05-11T08:57:38.743Z,1.40
2019-05-11T09:00:10.164Z,1.00
2019-05-11T09:02:38.587Z,0.90
2019-05-11T09:05:08.296Z,1.10
2019-05-11T09:07:38.370Z,1.00
2019-05-11T09:10:08.135Z,1.30
2019-05-11T09:12:38.289Z,0.70
2019-05-11T09:15:08.707Z,0.70
2019-05-11T09:17:38.134Z,0.40
2019-05-11T09:20:08.681Z,0.70
2019-05-11T09:22:38.090Z,0.60
2019-05-11T09:25:08.986Z,0.50
2019-05-11T09:27:37.774Z,0.50
2019-05-11T09:30:08.355Z,0.87
2019-05-11T09:32:38.521Z,0.57
2019-05-11T09:35:08.289Z,0.73
2019-05-11T09:37:38.049Z,1.10
2019-05-11T09:40:07.851Z,1.00
2019-05-11T09:42:38.676Z,1.20
2019-05-11T09:45:08.164Z,1.30
2019-05-11T09:47:38.591Z,1.13
2019-05-11T09:50:08.686Z,1.37
2019-05-11T09:52:38.532Z,1.70
2019-05-11T09:55:08.858Z,1.20
2019-05-11T09:57:38.170Z,1.27
2019-05-11T10:00:09.068Z,1.57
2019-05-11T10:02:38.489Z,1.30
2019-05-11T10:05:08.420Z,0.93
2019-05-11T10:07:38.040Z,2.80
2019-05-11T10:10:09.277Z,0.90
2019-05-11T10:12:40.674Z,0.97
2019-05-11T10:15:09.753Z,0.90
2019-05-11T10:17:38.538Z,1.10
2019-05-11T10:20:09.163Z,1.00
2019-05-11T10:22:38.593Z,1.00
2019-05-11T10:25:08.896Z,0.90
2019-05-11T10:27:38.372Z,0.50
2019-05-11T10:30:11.438Z,0.40
2019-05-11T10:32:40.715Z,0.50
2019-05-11T10:35:09.397Z,0.40
2019-05-11T10:37:38.955Z,0.70
2019-05-11T10:40:09.587Z,0.63
2019-05-11T10:42:38.228Z,0.43
2019-05-11T10:45:09.147Z,0.67
2019-05-11T10:47:38.344Z,0.83
2019-05-11T10:50:08.573Z,0.60
2019-05-11T10:52:37.981Z,0.67
2019-05-11T10:55:08.701Z,0.90
2019-05-11T10:57:38.668Z,1.40
2019-05-11T11:00:11.140Z,1.30
2019-05-11T11:02:39.554Z,1.30
2019-05-11T11:05:08.369Z,1.80
2019-05-11T11:07:38.453Z,1.57
2019-05-11T11:10:08.838Z,1.67
2019-05-11T11:12:38.469Z,1.93
2019-05-11T11:15:07.952Z,2.43
2019-05-11T11:17:38.310Z,2.20
2019-05-11T11:20:08.710Z,2.40
2019-05-11T11:22:43.406Z,2.27
2019-05-11T11:25:08.032Z,1.87
2019-05-11T11:27:38.095Z,2.00
2019-05-11T11:30:09.194Z,2.07
2019-05-11T11:32:38.333Z,2.03
2019-05-11T11:35:08.516Z,2.03
2019-05-11T11:37:38.726Z,1.87
2019-05-11T11:40:10.689Z,2.20
2019-05-11T11:42:39.180Z,2.17
2019-05-11T11:45:09.741Z,1.90
2019-05-11T11:47:38.590Z,2.33
2019-05-11T11:50:09.114Z,1.90
2019-05-11T11:52:38.411Z,1.30
2019-05-11T11:55:08.702Z,1.53
2019-05-11T11:57:37.978Z,1.47
2019-05-11T12:00:09.054Z,1.33
2019-05-11T12:02:38.784Z,1.13
2019-05-11T12:05:08.812Z,1.23
2019-05-11T12:07:38.656Z,1.20
2019-05-11T12:10:09.060Z,1.30
2019-05-11T12:12:38.637Z,1.20
2019-05-11T12:15:08.826Z,1.00
2019-05-11T12:17:37.859Z,0.97
2019-05-11T12:20:08.990Z,1.20
2019-05-11T12:22:38.614Z,1.20
2019-05-11T12:25:07.914Z,1.60
2019-05-11T12:27:38.336Z,1.50
2019-05-11T12:30:09.068Z,1.57
2019-05-11T12:32:41.958Z,1.20
2019-05-11T12:35:10.460Z,1.80
2019-05-11T12:37:38.893Z,1.70
2019-05-11T12:40:08.555Z,2.03
2019-05-11T12:42:37.974Z,1.70
2019-05-11T12:45:08.579Z,1.70
2019-05-11T12:47:38.520Z,1.80
2019-05-11T12:50:09.417Z,1.37
2019-05-11T12:52:38.407Z,1.60
2019-05-11T12:55:08.843Z,1.10
2019-05-11T12:57:38.552Z,0.77
2019-05-11T13:00:08.769Z,0.80
2019-05-11T13:02:38.774Z,1.00
2019-05-11T13:05:08.625Z,1.00
2019-05-11T13:07:39.213Z,0.70
2019-05-11T13:10:08.391Z,0.63
2019-05-11T13:12:38.592Z,0.90
2019-05-11T13:15:08.302Z,0.90
2019-05-11T13:17:38.332Z,2.63
2019-05-11T13:20:08.641Z,7.87
2019-05-11T13:22:38.150Z,1.10
2019-05-11T13:25:08.546Z,1.20
2019-05-11T13:27:38.727Z,1.43
2019-05-11T13:30:10.697Z,1.20
2019-05-11T13:32:39.136Z,0.90
2019-05-11T13:35:09.203Z,0.97
2019-05-11T13:37:38.611Z,1.10
2019-05-11T13:40:08.057Z,1.10
2019-05-11T13:42:38.621Z,1.10
2019-05-11T13:45:08.513Z,1.10
2019-05-11T13:47:49.378Z,1.00
2019-05-11T13:50:07.920Z,1.20
2019-05-11T13:52:38.441Z,1.37
2019-05-11T13:55:07.971Z,1.20
2019-05-11T13:57:38.071Z,0.90
2019-05-11T14:00:08.605Z,1.10
2019-05-11T14:02:37.981Z,1.20
2019-05-11T14:05:09.875Z,1.20
2019-05-11T14:07:38.465Z,1.07
2019-05-11T14:10:08.182Z,1.20
2019-05-11T14:12:38.556Z,1.20
2019-05-11T14:15:09.109Z,1.20
2019-05-11T14:17:38.099Z,1.47
2019-05-11T14:20:09.262Z,1.30
2019-05-11T14:22:38.770Z,0.90
2019-05-11T14:25:08.141Z,1.10
2019-05-11T14:27:38.865Z,1.40
2019-05-11T14:30:08.776Z,1.47
2019-05-11T14:32:38.953Z,1.30
2019-05-11T14:35:12.131Z,1.30
2019-05-11T14:37:38.144Z,0.90
2019-05-11T14:40:08.737Z,2.47
2019-05-11T14:42:38.191Z,1.17
2019-05-11T14:45:08.554Z,0.90
2019-05-11T14:47:38.613Z,1.00
2019-05-11T14:50:08.638Z,1.00
2019-05-11T14:52:38.808Z,1.27
2019-05-11T14:55:08.290Z,1.10
2019-05-11T14:57:39.362Z,1.00
2019-05-11T15:00:08.424Z,1.27
2019-05-11T15:02:48.578Z,1.10
2019-05-11T15:05:20.363Z,1.20
2019-05-11T15:07:51.675Z,1.00
2019-05-11T15:10:19.398Z,1.20
2019-05-11T15:12:48.934Z,0.80
2019-05-11T15:15:18.692Z,0.90
2019-05-11T15:17:49.212Z,1.00
2019-05-11T15:20:17.930Z,0.90
2019-05-11T15:22:48.663Z,0.90
2019-05-11T15:25:19.427Z,0.93
2019-05-11T15:27:48.754Z,1.23
2019-05-11T15:30:18.311Z,1.20
2019-05-11T15:32:48.164Z,1.13
2019-05-11T15:35:18.531Z,0.97
2019-05-11T15:37:48.137Z,1.00
2019-05-11T15:40:21.396Z,1.20
2019-05-11T15:42:49.798Z,1.17
2019-05-11T15:45:19.143Z,1.10
2019-05-11T15:47:48.728Z,1.47
2019-05-11T15:50:19.017Z,1.20
2019-05-11T15:52:48.835Z,1.00
2019-05-11T15:55:18.795Z,1.50
2019-05-11T15:57:48.321Z,1.43
2019-05-11T16:00:17.605Z,1.17
2019-05-11T16:02:48.686Z,1.37
2019-05-11T16:05:18.329Z,1.40
2019-05-11T16:07:49.277Z,1.40
2019-05-11T16:10:18.753Z,1.20
2019-05-11T16:12:48.631Z,2.03
2019-05-11T16:15:19.280Z,1.30
2019-05-11T16:17:48.719Z,1.30
2019-05-11T16:22:54.173Z,1.70
2019-05-11T16:25:22.606Z,1.30
2019-05-11T16:27:51.021Z,2.00
2019-05-11T16:30:21.517Z,1.80
2019-05-11T16:32:50.275Z,1.57
2019-05-11T16:35:19.232Z,1.60
2019-05-11T16:37:48.680Z,2.23
2019-05-11T16:40:20.621Z,2.10
2019-05-11T16:42:48.069Z,2.33
2019-05-11T16:45:18.942Z,2.20
2019-05-11T16:47:48.319Z,1.80
2019-05-11T16:50:18.051Z,1.87
2019-05-11T16:52:48.233Z,2.10
2019-05-11T16:55:18.459Z,2.17
2019-05-11T16:57:48.300Z,2.37
2019-05-11T17:00:17.742Z,2.50
2019-05-11T17:02:48.653Z,2.60
2019-05-11T17:05:25.876Z,2.30
2019-05-11T17:07:48.329Z,2.60
2019-05-11T17:10:17.837Z,2.27
2019-05-11T17:12:48.469Z,2.37
2019-05-11T17:15:18.699Z,2.77
2019-05-11T17:17:48.652Z,2.80
2019-05-11T17:20:18.754Z,3.00
2019-05-11T17:22:48.276Z,2.90
2019-05-11T17:25:19.201Z,3.00
2019-05-11T17:27:48.781Z,2.90
2019-05-11T17:30:19.353Z,3.30
2019-05-11T17:32:49.138Z,3.10
2019-05-11T17:35:17.854Z,2.93
2019-05-11T17:37:48.391Z,3.03
2019-05-11T17:40:20.469Z,2.40
2019-05-11T17:42:48.071Z,3.40
2019-05-11T17:45:18.935Z,2.93
2019-05-11T17:47:47.680Z,3.23
2019-05-11T17:50:16.156Z,3.20
2019-05-11T17:52:44.555Z,3.63
2019-05-11T17:55:13.081Z,3.80
2019-05-11T17:57:41.679Z,3.60
2019-05-11T18:00:10.519Z,3.57
2019-05-11T18:02:39.244Z,3.80
2019-05-11T18:05:08.956Z,3.13
2019-05-11T18:07:38.585Z,3.80
2019-05-11T18:10:08.761Z,3.90
2019-05-11T18:12:39.106Z,3.50
2019-05-11T18:15:08.431Z,4.10
2019-05-11T18:17:36.933Z,3.83
2019-05-11T18:20:16.842Z,4.27
2019-05-11T18:22:39.040Z,4.17
2019-05-11T18:25:08.892Z,3.67
2019-05-11T18:27:38.752Z,4.40
2019-05-11T18:30:08.803Z,4.23
2019-05-11T18:32:39.835Z,4.17
2019-05-11T18:35:08.633Z,4.90
2019-05-11T18:37:38.987Z,4.50
2019-05-11T18:40:08.260Z,5.27
2019-05-11T18:42:38.261Z,6.10
2019-05-11T18:45:08.276Z,5.23
2019-05-11T18:47:38.175Z,5.67
2019-05-11T18:50:08.529Z,5.50
2019-05-11T18:52:36.935Z,5.47
2019-05-11T18:55:08.190Z,5.40
2019-05-11T18:57:38.224Z,5.70
2019-05-11T19:00:08.291Z,5.43
2019-05-11T19:02:38.544Z,5.90
2019-05-11T19:05:07.309Z,6.23
2019-05-11T19:07:35.824Z,5.00
2019-05-11T19:10:08.457Z,5.83
2019-05-11T19:12:37.675Z,5.47
2019-05-11T19:15:09.444Z,5.50
2019-05-11T19:17:38.506Z,4.97
2019-05-11T19:20:08.548Z,5.30
2019-05-11T19:22:37.828Z,5.50
2019-05-11T19:25:09.115Z,5.10
2019-05-11T19:27:37.895Z,5.57
2019-05-11T19:30:10.235Z,5.30
2019-05-11T19:32:38.738Z,5.30
2019-05-11T19:35:08.962Z,5.50
2019-05-11T19:37:38.772Z,5.73
2019-05-11T19:40:09.049Z,5.30
2019-05-11T19:42:54.779Z,5.20
2019-05-11T19:45:23.674Z,5.30
2019-05-11T19:47:52.155Z,5.23
2019-05-11T19:50:20.634Z,6.20
2019-05-11T19:52:49.167Z,7.00
2019-05-11T19:55:18.191Z,5.60
2019-05-11T19:57:48.197Z,6.00
2019-05-11T20:00:18.356Z,5.80
2019-05-11T20:02:47.235Z,5.80
2019-05-11T20:05:18.184Z,5.43
2019-05-11T20:07:48.312Z,4.87
2019-05-11T20:10:18.920Z,5.70
2019-05-11T20:12:48.446Z,5.00
2019-05-11T20:15:18.839Z,5.30
2019-05-11T20:17:48.655Z,5.20
2019-05-11T20:20:18.359Z,5.17
2019-05-11T20:22:48.239Z,5.13
2019-05-11T20:25:18.763Z,5.30
2019-05-11T20:27:48.275Z,5.23
2019-05-11T20:30:18.488Z,5.27
2019-05-11T20:32:48.340Z,5.67
2019-05-11T20:35:17.547Z,5.73
2019-05-11T20:37:46.047Z,7.33
2019-05-11T20:40:14.579Z,5.83
2019-05-11T20:42:43.028Z,5.87
2019-05-11T20:45:11.600Z,6.20
2019-05-11T20:47:40.151Z,6.15
2019-05-11T20:50:08.948Z,5.50
2019-05-11T20:52:39.025Z,6.60
2019-05-11T20:55:08.820Z,6.00
2019-05-11T20:57:39.299Z,6.97
2019-05-11T21:00:08.835Z,7.13
2019-05-11T21:02:38.105Z,6.90
2019-05-11T21:05:08.990Z,7.07
2019-05-11T21:07:38.985Z,8.13
2019-05-11T21:10:08.938Z,7.20
2019-05-11T21:12:38.516Z,7.43
2019-05-11T21:15:10.768Z,7.30
2019-05-11T21:17:39.185Z,7.80
2019-05-11T21:20:09.149Z,7.87
2019-05-11T21:22:40.078Z,7.77
2019-05-11T21:25:09.805Z,7.97
2019-05-11T21:27:38.707Z,8.50
2019-05-11T21:30:09.820Z,7.70
2019-05-11T21:32:40.236Z,8.20
2019-05-11T21:35:09.434Z,9.10
2019-05-11T21:37:38.672Z,7.20
2019-05-11T21:40:10.867Z,8.23
2019-05-11T21:42:39.435Z,8.67
2019-05-11T21:45:09.849Z,7.17
2019-05-11T21:47:39.129Z,8.67
2019-05-11T21:50:09.234Z,8.17
2019-05-11T21:52:38.636Z,8.10
2019-05-11T21:55:09.561Z,9.03
2019-05-11T21:57:38.312Z,8.30
2019-05-11T22:00:09.411Z,8.57
2019-05-11T22:02:38.571Z,8.83
2019-05-11T22:05:08.164Z,8.10
2019-05-11T22:07:38.701Z,8.80
2019-05-11T22:10:09.176Z,8.17
2019-05-11T22:12:38.837Z,7.77
2019-05-11T22:15:09.296Z,6.77
2019-05-11T22:17:39.242Z,7.70
2019-05-11T22:20:08.896Z,8.33
2019-05-11T22:22:39.119Z,6.70
2019-05-11T22:25:08.794Z,7.30
2019-05-11T22:27:38.704Z,7.83
2019-05-11T22:30:08.633Z,7.50
2019-05-11T22:32:38.317Z,7.10
2019-05-11T22:35:08.156Z,7.70
2019-05-11T22:37:38.713Z,8.97
2019-05-11T22:40:08.418Z,8.23
2019-05-11T22:42:37.153Z,8.80
2019-05-11T22:45:08.500Z,8.67
2019-05-11T22:47:39.277Z,8.13
2019-05-11T22:50:08.354Z,8.10
2019-05-11T22:52:39.791Z,8.20
2019-05-11T22:55:08.916Z,8.87
2019-05-11T22:57:38.123Z,9.13
2019-05-11T23:00:10.683Z,9.00
2019-05-11T23:02:39.087Z,8.10
2019-05-11T23:05:09.005Z,9.10
2019-05-11T23:07:41.459Z,8.27
2019-05-11T23:10:11.175Z,9.13
2019-05-11T23:12:39.735Z,8.83
2019-05-11T23:15:12.679Z,9.47
2019-05-11T23:17:41.463Z,10.30
2019-05-11T23:20:10.504Z,9.67
2019-05-11T23:22:53.490Z,10.23
2019-05-11T23:25:10.857Z,10.67
2019-05-11T23:27:39.446Z,8.50
2019-05-11T23:30:08.851Z,8.43
2019-05-11T23:32:37.476Z,9.87
2019-05-11T23:35:08.337Z,9.33
2019-05-11T23:37:38.609Z,10.00
2019-05-11T23:40:09.282Z,8.43
2019-05-11T23:42:38.246Z,9.17
2019-05-11T23:45:09.053Z,8.93
2019-05-11T23:47:39.266Z,8.37
2019-05-11T23:50:08.677Z,8.93
2019-05-11T23:52:38.245Z,10.73
2019-05-11T23:55:08.331Z,9.90
2019-05-11T23:57:37.963Z,9.30
